createdAt,value
2018-06-03T00:01:21.843Z,19.64
2018-06-03T00:03:50.130Z,19.56
2018-06-03T00:06:18.703Z,19.55
2018-06-03T00:08:47.770Z,19.45
2018-06-03T00:11:16.352Z,19.36
2018-06-03T00:13:45.555Z,19.27
2018-06-03T00:16:13.732Z,19.22
2018-06-03T00:18:41.970Z,19.20
2018-06-03T00:21:53.768Z,19.17
2018-06-03T00:24:21.951Z,19.16
2018-06-03T00:26:50.693Z,19.17
2018-06-03T00:29:21.248Z,19.12
2018-06-03T00:31:51.191Z,19.01
2018-06-03T00:34:19.913Z,19.00
2018-06-03T00:36:49.118Z,18.97
2018-06-03T00:39:17.323Z,18.94
2018-06-03T00:41:45.615Z,18.92
2018-06-03T00:44:13.851Z,18.97
2018-06-03T00:46:42.507Z,18.97
2018-06-03T00:49:10.720Z,18.99
2018-06-03T00:51:39.181Z,18.84
2018-06-03T00:54:07.610Z,18.75
2018-06-03T00:57:22.691Z,18.73
2018-06-03T00:59:51.136Z,18.57
2018-06-03T01:02:19.949Z,18.47
2018-06-03T01:04:49.830Z,18.40
2018-06-03T01:07:17.995Z,18.54
2018-06-03T01:09:46.321Z,18.59
2018-06-03T01:12:15.354Z,18.48
2018-06-03T01:14:43.879Z,18.43
2018-06-03T01:17:12.316Z,18.39
2018-06-03T01:19:40.538Z,18.33
2018-06-03T01:22:08.727Z,18.33
2018-06-03T01:24:37.050Z,18.31
2018-06-03T01:27:05.633Z,18.31
2018-06-03T01:29:34.097Z,18.27
2018-06-03T01:32:02.607Z,18.30
2018-06-03T01:34:30.959Z,18.27
2018-06-03T01:36:59.564Z,18.28
2018-06-03T01:39:28.246Z,18.37
2018-06-03T01:41:56.766Z,18.38
2018-06-03T01:44:24.970Z,18.39
2018-06-03T01:46:53.244Z,18.27
2018-06-03T01:49:21.450Z,18.21
2018-06-03T01:51:50.028Z,18.18
2018-06-03T01:54:18.235Z,18.15
2018-06-03T01:56:46.733Z,18.10
2018-06-03T01:59:15.212Z,18.10
2018-06-03T02:01:43.462Z,18.22
2018-06-03T02:04:12.747Z,18.25
2018-06-03T02:06:40.977Z,18.33
2018-06-03T02:09:10.044Z,18.26
2018-06-03T02:11:38.424Z,18.20
2018-06-03T02:14:06.682Z,18.18
2018-06-03T02:16:35.181Z,18.18
2018-06-03T02:19:03.789Z,18.07
2018-06-03T02:21:32.038Z,18.08
2018-06-03T02:24:00.310Z,18.15
2018-06-03T02:26:28.625Z,18.16
2018-06-03T02:28:56.943Z,18.11
2018-06-03T02:31:25.231Z,18.06
2018-06-03T02:33:53.507Z,17.92
2018-06-03T02:36:21.697Z,17.88
2018-06-03T02:38:50.276Z,17.93
2018-06-03T02:41:18.522Z,17.98
2018-06-03T02:43:47.522Z,17.99
2018-06-03T02:46:15.759Z,17.93
2018-06-03T02:48:44.044Z,17.87
2018-06-03T02:51:12.224Z,17.87
2018-06-03T02:53:40.441Z,17.92
2018-06-03T02:56:08.664Z,17.83
2018-06-03T02:58:38.916Z,17.78
2018-06-03T03:01:07.091Z,17.73
2018-06-03T03:03:35.295Z,17.69
2018-06-03T03:06:04.263Z,17.63
2018-06-03T03:08:32.829Z,17.65
2018-06-03T03:11:01.670Z,17.60
2018-06-03T03:13:30.124Z,17.58
2018-06-03T03:16:00.276Z,17.67
2018-06-03T03:18:28.507Z,17.79
2018-06-03T03:20:56.736Z,17.85
2018-06-03T03:23:25.274Z,17.78
2018-06-03T03:25:53.650Z,17.73
2018-06-03T03:28:21.855Z,17.72
2018-06-03T03:30:50.386Z,17.72
2018-06-03T03:33:18.904Z,17.72
2018-06-03T03:35:47.393Z,17.64
2018-06-03T03:38:15.535Z,17.64
2018-06-03T03:40:44.101Z,17.62
2018-06-03T03:43:15.829Z,17.57
2018-06-03T03:45:44.023Z,17.54
2018-06-03T03:48:12.095Z,17.52
2018-06-03T03:50:40.756Z,17.54
2018-06-03T03:53:09.057Z,17.65
2018-06-03T03:55:37.156Z,17.65
2018-06-03T03:58:05.607Z,17.68
2018-06-03T04:00:34.039Z,17.70
2018-06-03T04:03:02.589Z,17.74
2018-06-03T04:05:31.595Z,17.88
2018-06-03T04:08:00.676Z,17.94
2018-06-03T04:10:28.883Z,18.00
2018-06-03T04:12:57.118Z,18.11
2018-06-03T04:15:26.075Z,18.27
2018-06-03T04:17:54.577Z,18.63
2018-06-03T04:20:23.079Z,18.78
2018-06-03T04:22:52.074Z,18.94
2018-06-03T04:25:20.661Z,18.88
2018-06-03T04:27:49.161Z,18.88
2018-06-03T04:30:18.121Z,18.93
2018-06-03T04:32:46.308Z,18.93
2018-06-03T04:35:14.529Z,18.86
2018-06-03T04:37:42.866Z,18.90
2018-06-03T04:40:11.449Z,18.89
2018-06-03T04:42:39.959Z,18.83
2018-06-03T04:45:08.263Z,18.95
2018-06-03T04:47:36.881Z,18.96
2018-06-03T04:50:05.471Z,19.00
2018-06-03T04:52:33.839Z,19.14
2018-06-03T04:55:02.095Z,19.10
2018-06-03T04:57:30.293Z,19.01
2018-06-03T04:59:58.706Z,19.32
2018-06-03T05:02:26.950Z,19.55
2018-06-03T05:04:55.183Z,19.47
2018-06-03T05:07:23.402Z,19.51
2018-06-03T05:09:51.750Z,19.53
2018-06-03T05:12:20.625Z,19.70
2018-06-03T05:14:48.905Z,19.55
2018-06-03T05:17:17.350Z,19.71
2018-06-03T05:19:45.949Z,19.75
2018-06-03T05:22:14.296Z,20.00
2018-06-03T05:24:43.511Z,20.00
2018-06-03T05:27:11.814Z,19.90
2018-06-03T05:29:40.114Z,19.89
2018-06-03T05:32:08.425Z,20.00
2018-06-03T05:34:36.618Z,20.07
2018-06-03T05:37:05.141Z,20.04
2018-06-03T05:39:33.648Z,19.96
2018-06-03T05:42:01.836Z,20.18
2018-06-03T05:44:30.360Z,20.43
2018-06-03T05:46:58.541Z,20.63
2018-06-03T05:49:26.944Z,20.76
2018-06-03T05:51:55.290Z,20.50
2018-06-03T05:54:23.383Z,20.26
2018-06-03T05:56:51.598Z,20.35
2018-06-03T05:59:19.813Z,20.68
2018-06-03T06:01:48.628Z,20.70
2018-06-03T06:04:16.857Z,20.94
2018-06-03T06:06:45.070Z,20.91
2018-06-03T06:09:14.008Z,20.94
2018-06-03T06:11:42.500Z,21.18
2018-06-03T06:14:10.755Z,21.21
2018-06-03T06:16:38.939Z,21.16
2018-06-03T06:19:07.461Z,21.41
2018-06-03T06:21:36.214Z,21.56
2018-06-03T06:24:04.428Z,21.52
2018-06-03T06:26:33.374Z,21.58
2018-06-03T06:29:01.608Z,21.89
2018-06-03T06:31:29.949Z,22.10
2018-06-03T06:33:58.414Z,22.11
2018-06-03T06:36:26.952Z,21.89
2018-06-03T06:38:55.297Z,22.16
2018-06-03T06:41:23.475Z,22.11
2018-06-03T06:43:51.744Z,21.85
2018-06-03T06:46:20.060Z,22.19
2018-06-03T06:48:48.249Z,22.37
2018-06-03T06:51:16.578Z,22.37
2018-06-03T06:53:45.431Z,22.25
2018-06-03T06:56:14.236Z,22.21
2018-06-03T06:58:42.911Z,22.62
2018-06-03T07:01:11.474Z,22.75
2018-06-03T07:03:39.750Z,22.87
2018-06-03T07:06:07.971Z,22.93
2018-06-03T07:08:36.445Z,23.43
2018-06-03T07:11:05.193Z,23.21
2018-06-03T07:13:33.734Z,23.44
2018-06-03T07:16:01.933Z,23.19
2018-06-03T07:18:30.106Z,23.57
2018-06-03T07:20:58.366Z,23.79
2018-06-03T07:23:26.894Z,23.51
2018-06-03T07:25:55.092Z,23.71
2018-06-03T07:28:23.625Z,23.80
2018-06-03T07:30:51.844Z,23.92
2018-06-03T07:33:20.081Z,23.97
2018-06-03T07:35:48.303Z,24.44
2018-06-03T07:38:16.845Z,24.20
2018-06-03T07:40:46.155Z,24.17
2018-06-03T07:43:14.775Z,24.27
2018-06-03T07:45:43.112Z,24.43
2018-06-03T07:48:11.837Z,24.94
2018-06-03T07:50:40.598Z,25.39
2018-06-03T07:53:09.874Z,24.87
2018-06-03T07:55:38.653Z,24.59
2018-06-03T07:58:07.360Z,24.75
2018-06-03T08:00:35.542Z,24.75
2018-06-03T08:03:04.564Z,25.07
2018-06-03T08:05:33.325Z,25.19
2018-06-03T08:08:01.521Z,25.27
2018-06-03T08:10:30.348Z,25.47
2018-06-03T08:12:58.840Z,24.79
2018-06-03T08:15:27.169Z,25.28
2018-06-03T08:17:55.675Z,25.25
2018-06-03T08:20:24.833Z,25.22
2018-06-03T08:22:53.540Z,25.22
2018-06-03T08:25:21.756Z,25.77
2018-06-03T08:27:50.751Z,25.70
2018-06-03T08:30:18.985Z,25.65
2018-06-03T08:32:47.706Z,25.88
2018-06-03T08:35:16.471Z,26.02
2018-06-03T08:37:44.987Z,26.06
2018-06-03T08:40:14.234Z,25.81
2018-06-03T08:42:42.778Z,25.71
2018-06-03T08:45:11.813Z,25.92
2018-06-03T08:47:40.390Z,25.83
2018-06-03T08:50:09.042Z,26.05
2018-06-03T08:52:38.102Z,26.45
2018-06-03T08:55:06.613Z,26.29
2018-06-03T08:57:35.866Z,26.37
2018-06-03T09:00:04.834Z,26.69
2018-06-03T09:02:33.476Z,26.88
2018-06-03T09:05:02.405Z,27.05
2018-06-03T09:07:31.215Z,26.44
2018-06-03T09:09:59.991Z,26.41
2018-06-03T09:12:28.879Z,26.40
2018-06-03T09:14:57.343Z,25.88
2018-06-03T09:17:26.012Z,26.08
2018-06-03T09:19:54.592Z,26.08
2018-06-03T09:22:23.070Z,26.58
2018-06-03T09:24:51.700Z,26.87
2018-06-03T09:27:20.456Z,27.12
2018-06-03T09:29:49.184Z,26.73
2018-06-03T09:32:18.094Z,26.77
2018-06-03T09:34:46.987Z,27.16
2018-06-03T09:37:15.439Z,26.95
2018-06-03T09:39:44.013Z,27.14
2018-06-03T09:42:13.313Z,27.19
2018-06-03T09:44:42.373Z,27.05
2018-06-03T09:47:10.827Z,27.53
2018-06-03T09:49:39.154Z,27.72
2018-06-03T09:52:08.612Z,28.25
2018-06-03T09:54:37.391Z,28.33
2018-06-03T09:57:05.669Z,28.19
2018-06-03T09:59:34.802Z,27.96
2018-06-03T10:02:03.341Z,28.04
2018-06-03T10:04:31.687Z,28.26
2018-06-03T10:07:00.441Z,28.09
2018-06-03T10:09:29.130Z,27.82
2018-06-03T10:11:57.825Z,27.48
2018-06-03T10:14:26.665Z,28.09
2018-06-03T10:16:55.245Z,28.63
2018-06-03T10:19:23.808Z,28.92
2018-06-03T10:21:51.962Z,28.85
2018-06-03T10:24:20.998Z,28.82
2018-06-03T10:26:49.954Z,29.15
2018-06-03T10:29:18.549Z,29.63
2018-06-03T10:31:46.946Z,29.63
2018-06-03T10:34:15.732Z,29.60
2018-06-03T10:36:45.368Z,29.79
2018-06-03T10:39:14.289Z,30.14
2018-06-03T10:41:43.036Z,30.26
2018-06-03T10:44:12.090Z,30.59
2018-06-03T10:46:40.460Z,31.05
2018-06-03T10:49:09.407Z,30.96
2018-06-03T10:51:39.850Z,30.66
2018-06-03T10:54:08.974Z,31.00
2018-06-03T10:56:38.095Z,30.46
2018-06-03T10:59:06.509Z,30.92
2018-06-03T11:01:35.552Z,31.01
2018-06-03T11:04:03.809Z,31.10
2018-06-03T11:06:32.737Z,30.91
2018-06-03T11:09:01.342Z,30.41
2018-06-03T11:11:29.537Z,29.48
2018-06-03T11:13:58.003Z,29.48
2018-06-03T11:16:26.669Z,29.57
2018-06-03T11:18:55.209Z,29.29
2018-06-03T11:21:23.727Z,29.88
2018-06-03T11:23:52.877Z,30.53
2018-06-03T11:26:21.097Z,31.03
2018-06-03T11:28:50.095Z,31.02
2018-06-03T11:31:19.045Z,31.21
2018-06-03T11:33:48.261Z,30.44
2018-06-03T11:36:16.820Z,30.29
2018-06-03T11:38:46.215Z,29.69
2018-06-03T11:41:15.463Z,29.66
2018-06-03T11:43:44.521Z,30.11
2018-06-03T11:46:13.264Z,30.51
2018-06-03T11:48:42.030Z,30.59
2018-06-03T11:51:10.962Z,30.58
2018-06-03T11:53:39.343Z,30.40
2018-06-03T11:56:07.574Z,30.40
2018-06-03T11:58:55.041Z,30.62
2018-06-03T12:01:25.220Z,30.28
2018-06-03T12:03:53.629Z,30.35
2018-06-03T12:06:22.367Z,30.68
2018-06-03T12:08:51.020Z,30.41
2018-06-03T12:11:19.297Z,30.72
2018-06-03T12:13:48.085Z,30.76
2018-06-03T12:16:17.043Z,30.72
2018-06-03T12:18:45.661Z,30.90
2018-06-03T12:21:14.160Z,30.75
2018-06-03T12:23:42.830Z,30.85
2018-06-03T12:26:11.595Z,30.40
2018-06-03T12:28:40.635Z,30.13
2018-06-03T12:31:09.632Z,30.21
2018-06-03T12:33:38.334Z,29.96
2018-06-03T12:36:07.681Z,30.25
2018-06-03T12:38:36.539Z,31.17
2018-06-03T12:41:05.688Z,32.04
2018-06-03T12:43:34.388Z,32.45
2018-06-03T12:46:03.269Z,32.11
2018-06-03T12:48:31.922Z,31.85
2018-06-03T12:51:00.760Z,32.49
2018-06-03T12:53:29.398Z,32.53
2018-06-03T12:55:58.169Z,33.27
2018-06-03T12:58:26.815Z,33.01
2018-06-03T13:00:55.529Z,32.90
2018-06-03T13:03:24.210Z,32.66
2018-06-03T13:05:52.523Z,32.60
2018-06-03T13:08:21.684Z,32.96
2018-06-03T13:10:50.916Z,33.54
2018-06-03T13:13:20.087Z,33.72
2018-06-03T13:15:48.491Z,33.75
2018-06-03T13:18:17.206Z,33.99
2018-06-03T13:20:45.889Z,35.24
2018-06-03T13:23:15.336Z,34.32
2018-06-03T13:25:44.233Z,32.90
2018-06-03T13:28:13.137Z,32.63
2018-06-03T13:30:41.759Z,33.19
2018-06-03T13:33:09.986Z,34.55
2018-06-03T13:35:38.209Z,35.85
2018-06-03T13:38:06.523Z,36.50
2018-06-03T13:40:35.087Z,36.18
2018-06-03T13:43:03.373Z,36.52
2018-06-03T13:45:33.864Z,37.73
2018-06-03T13:48:02.711Z,38.88
2018-06-03T13:50:31.217Z,39.67
2018-06-03T13:53:00.501Z,40.07
2018-06-03T13:55:30.007Z,40.47
2018-06-03T13:57:58.568Z,41.26
2018-06-03T14:00:28.574Z,41.84
2018-06-03T14:02:57.428Z,42.95
2018-06-03T14:05:26.205Z,41.55
2018-06-03T14:07:55.781Z,38.81
2018-06-03T14:10:24.275Z,36.93
2018-06-03T14:12:52.703Z,35.15
2018-06-03T14:15:21.216Z,33.87
2018-06-03T14:17:49.670Z,33.05
2018-06-03T14:20:18.419Z,32.96
2018-06-03T14:22:46.976Z,33.31
2018-06-03T14:25:15.731Z,35.52
2018-06-03T14:27:44.237Z,36.16
2018-06-03T14:30:12.888Z,34.04
2018-06-03T14:32:41.818Z,33.81
2018-06-03T14:35:10.781Z,33.67
2018-06-03T14:37:39.333Z,35.10
2018-06-03T14:40:08.262Z,37.54
2018-06-03T14:42:37.029Z,37.25
2018-06-03T14:45:05.369Z,35.13
2018-06-03T14:47:34.252Z,38.16
2018-06-03T14:50:02.569Z,39.66
2018-06-03T14:52:31.243Z,40.47
2018-06-03T14:55:00.360Z,40.78
2018-06-03T14:57:29.033Z,41.37
2018-06-03T14:59:58.177Z,40.78
2018-06-03T15:02:26.926Z,40.13
2018-06-03T15:04:55.515Z,39.43
2018-06-03T15:07:23.986Z,39.57
2018-06-03T15:09:52.361Z,39.11
2018-06-03T15:12:21.083Z,38.90
2018-06-03T15:14:49.543Z,41.62
2018-06-03T15:17:18.193Z,42.50
2018-06-03T15:19:46.671Z,42.59
2018-06-03T15:22:14.848Z,40.78
2018-06-03T15:24:43.405Z,39.65
2018-06-03T15:27:12.221Z,37.66
2018-06-03T15:29:40.436Z,35.72
2018-06-03T15:32:08.974Z,35.02
2018-06-03T15:34:37.776Z,33.80
2018-06-03T15:37:07.388Z,34.43
2018-06-03T15:39:36.079Z,33.78
2018-06-03T15:42:04.503Z,32.88
2018-06-03T15:44:33.027Z,32.95
2018-06-03T15:47:01.854Z,33.17
2018-06-03T15:49:30.296Z,33.01
2018-06-03T15:51:58.823Z,33.48
2018-06-03T15:54:27.474Z,35.11
2018-06-03T15:56:56.228Z,38.72
2018-06-03T15:59:24.805Z,40.86
2018-06-03T16:01:53.006Z,41.21
2018-06-03T16:04:21.357Z,42.00
2018-06-03T16:06:49.808Z,41.81
2018-06-03T16:09:18.885Z,42.11
2018-06-03T16:11:48.179Z,41.52
2018-06-03T16:14:16.755Z,41.96
2018-06-03T16:16:45.080Z,41.93
2018-06-03T16:19:13.565Z,42.86
2018-06-03T16:21:42.754Z,42.94
2018-06-03T16:24:11.835Z,42.63
2018-06-03T16:26:39.984Z,43.10
2018-06-03T16:29:08.113Z,43.03
2018-06-03T16:31:36.581Z,42.37
2018-06-03T16:34:05.253Z,42.28
2018-06-03T16:36:34.191Z,42.67
2018-06-03T16:39:06.379Z,42.49
2018-06-03T16:41:36.772Z,43.05
2018-06-03T16:44:05.831Z,42.92
2018-06-03T16:46:36.266Z,42.18
2018-06-03T16:49:04.984Z,42.42
2018-06-03T16:51:33.628Z,42.75
2018-06-03T16:54:03.313Z,42.65
2018-06-03T16:56:31.981Z,42.35
2018-06-03T16:59:01.543Z,41.39
2018-06-03T17:01:30.674Z,42.39
2018-06-03T17:04:00.071Z,42.75
2018-06-03T17:06:28.582Z,42.74
2018-06-03T17:08:56.897Z,41.39
2018-06-03T17:11:26.085Z,40.75
2018-06-03T17:13:55.164Z,40.66
2018-06-03T17:16:23.630Z,40.52
2018-06-03T17:18:52.498Z,40.87
2018-06-03T17:21:21.507Z,40.22
2018-06-03T17:23:51.257Z,39.99
2018-06-03T17:26:19.795Z,40.23
2018-06-03T17:28:49.657Z,40.77
2018-06-03T17:31:20.130Z,37.71
2018-06-03T17:33:49.152Z,36.85
2018-06-03T17:36:17.384Z,35.15
2018-06-03T17:38:45.754Z,33.83
2018-06-03T17:41:14.463Z,32.94
2018-06-03T17:43:42.681Z,32.06
2018-06-03T17:46:10.886Z,31.84
2018-06-03T17:48:39.351Z,31.30
2018-06-03T17:51:07.861Z,31.08
2018-06-03T17:53:36.098Z,30.92
2018-06-03T17:56:04.282Z,30.77
2018-06-03T17:58:32.830Z,30.77
2018-06-03T18:01:01.081Z,31.19
2018-06-03T18:03:29.286Z,30.90
2018-06-03T18:05:57.565Z,30.43
2018-06-03T18:08:25.793Z,30.14
2018-06-03T18:10:54.524Z,30.11
2018-06-03T18:13:23.101Z,30.07
2018-06-03T18:15:51.765Z,30.20
2018-06-03T18:18:20.055Z,29.96
2018-06-03T18:20:48.300Z,29.75
2018-06-03T18:23:16.838Z,29.78
2018-06-03T18:25:45.367Z,29.55
2018-06-03T18:28:13.577Z,29.37
2018-06-03T18:30:41.819Z,29.33
2018-06-03T18:33:12.515Z,29.08
2018-06-03T18:35:40.722Z,28.98
2018-06-03T18:38:09.299Z,28.98
2018-06-03T18:40:37.510Z,28.77
2018-06-03T18:43:05.780Z,28.49
2018-06-03T18:45:34.345Z,28.36
2018-06-03T18:48:02.641Z,28.47
2018-06-03T18:50:38.000Z,28.41
2018-06-03T18:53:06.749Z,27.95
2018-06-03T18:55:35.359Z,27.83
2018-06-03T18:58:04.408Z,27.69
2018-06-03T19:00:33.251Z,27.48
2018-06-03T19:03:01.607Z,27.49
2018-06-03T19:05:29.930Z,27.14
2018-06-03T19:07:58.481Z,27.04
2018-06-03T19:10:27.230Z,26.91
2018-06-03T19:12:55.868Z,26.88
2018-06-03T19:15:24.325Z,26.73
2018-06-03T19:17:53.227Z,26.60
2018-06-03T19:20:21.623Z,26.43
2018-06-03T19:22:50.669Z,26.33
2018-06-03T19:25:19.934Z,26.27
2018-06-03T19:27:49.420Z,26.14
2018-06-03T19:30:17.951Z,26.10
2018-06-03T19:32:47.179Z,26.08
2018-06-03T19:35:16.041Z,26.00
2018-06-03T19:37:44.584Z,25.86
2018-06-03T19:40:12.817Z,25.87
2018-06-03T19:42:41.756Z,25.75
2018-06-03T19:45:10.050Z,25.72
2018-06-03T19:47:38.192Z,25.66
2018-06-03T19:50:06.640Z,25.57
2018-06-03T19:52:34.849Z,25.54
2018-06-03T19:55:03.815Z,25.48
2018-06-03T19:57:32.256Z,25.47
2018-06-03T20:00:03.655Z,25.40
2018-06-03T20:02:31.942Z,25.35
2018-06-03T20:05:00.730Z,25.24
2018-06-03T20:07:29.908Z,25.17
2018-06-03T20:10:01.107Z,25.08
2018-06-03T20:12:31.177Z,25.09
2018-06-03T20:15:00.362Z,25.06
2018-06-03T20:17:28.984Z,24.95
2018-06-03T20:19:57.443Z,25.02
2018-06-03T20:22:26.278Z,24.98
2018-06-03T20:24:56.042Z,24.87
2018-06-03T20:27:24.218Z,24.83
2018-06-03T20:29:53.520Z,24.69
2018-06-03T20:32:21.740Z,24.67
2018-06-03T20:34:49.991Z,24.70
2018-06-03T20:37:18.248Z,24.49
2018-06-03T20:39:47.442Z,24.21
2018-06-03T20:42:16.304Z,24.18
2018-06-03T20:44:45.003Z,24.22
2018-06-03T20:47:13.331Z,24.38
2018-06-03T20:49:41.714Z,24.16
2018-06-03T20:52:11.633Z,24.05
2018-06-03T20:54:40.069Z,24.04
2018-06-03T20:57:08.352Z,23.96
2018-06-03T20:59:36.761Z,23.69
2018-06-03T21:02:05.233Z,23.53
2018-06-03T21:04:34.001Z,23.49
2018-06-03T21:07:02.453Z,23.46
2018-06-03T21:09:30.966Z,23.51
2018-06-03T21:11:59.744Z,23.70
2018-06-03T21:14:28.330Z,23.68
2018-06-03T21:16:57.122Z,23.49
2018-06-03T21:19:25.900Z,23.52
2018-06-03T21:21:55.820Z,23.41
2018-06-03T21:24:24.267Z,23.44
2018-06-03T21:26:52.513Z,23.44
2018-06-03T21:29:20.751Z,23.32
2018-06-03T21:31:49.591Z,23.25
2018-06-03T21:34:17.782Z,23.22
2018-06-03T21:36:46.070Z,23.23
2018-06-03T21:39:14.327Z,23.30
2018-06-03T21:41:42.501Z,23.09
2018-06-03T21:44:11.129Z,22.99
2018-06-03T21:46:40.356Z,23.00
2018-06-03T21:49:08.720Z,22.96
2018-06-03T21:51:38.149Z,22.69
2018-06-03T21:54:06.477Z,22.64
2018-06-03T21:56:34.836Z,22.80
2018-06-03T21:59:05.406Z,22.81
2018-06-03T22:01:33.906Z,22.77
2018-06-03T22:04:02.551Z,22.67
2018-06-03T22:06:30.784Z,22.51
2018-06-03T22:08:59.084Z,22.56
2018-06-03T22:11:27.321Z,22.57
2018-06-03T22:13:56.385Z,22.35
2018-06-03T22:16:25.790Z,22.21
2018-06-03T22:18:54.162Z,22.12
2018-06-03T22:21:22.429Z,22.10
2018-06-03T22:23:50.974Z,21.97
2018-06-03T22:26:19.247Z,22.03
2018-06-03T22:28:48.510Z,21.97
2018-06-03T22:31:17.262Z,22.05
2018-06-03T22:33:45.611Z,22.14
2018-06-03T22:36:13.912Z,22.18
2018-06-03T22:38:42.162Z,22.08
2018-06-03T22:41:10.852Z,21.95
2018-06-03T22:43:39.621Z,21.95
2018-06-03T22:46:08.220Z,21.82
2018-06-03T22:48:36.419Z,21.74
2018-06-03T22:51:04.978Z,21.70
2018-06-03T22:53:33.185Z,21.85
2018-06-03T22:56:01.781Z,21.74
2018-06-03T22:58:30.405Z,21.62
2018-06-03T23:00:58.633Z,21.47
2018-06-03T23:03:27.281Z,21.40
2018-06-03T23:05:55.582Z,21.36
2018-06-03T23:08:23.869Z,21.38
2018-06-03T23:10:52.186Z,21.46
2018-06-03T23:13:20.441Z,21.46
2018-06-03T23:15:49.158Z,21.51
2018-06-03T23:18:17.487Z,21.51
2018-06-03T23:20:46.648Z,21.39
2018-06-03T23:23:14.898Z,21.33
2018-06-03T23:25:43.304Z,21.35
2018-06-03T23:28:11.523Z,21.25
2018-06-03T23:30:39.755Z,21.22
2018-06-03T23:33:08.050Z,21.06
2018-06-03T23:35:36.641Z,21.12
2018-06-03T23:38:04.818Z,21.14
2018-06-03T23:40:33.389Z,21.24
2018-06-03T23:43:01.654Z,21.22
2018-06-03T23:45:29.846Z,21.18
2018-06-03T23:47:58.370Z,21.18
2018-06-03T23:50:26.650Z,21.14
2018-06-03T23:52:54.924Z,21.13
2018-06-03T23:55:23.415Z,21.12
2018-06-03T23:57:52.255Z,20.88
